JZA836 CYYZ-KRDU
Flight info
| Callsign | JZA836 |
|---|---|
| Flight time | 1h 32m |
| Altitude | 34000 |
| Route | BETES3·AIRRA/05 BETES3 AIRRA Q103 RICCS FRIKY ALDAN4 |
| Aircraft | CRJ9/M-VGDW/C |
Departure
| Time | 2026-05-06 23:31 |
|---|---|
| Airport | Toronto Pearson International Airport (CYYZ) |
Arrival
| Time | 2026-05-07 01:03 |
|---|---|
| Airport | Raleigh-Durham International Airport (KRDU) |
| Time | Latitude | Longitude | Altitude | Speed | Heading |
|---|---|---|---|---|---|
| 2026-05-06 22:50 | 43.67888 | -79.60810 | 577 ft | 0 kts | 47° |
| 2026-05-06 23:09 | 43.67888 | -79.60811 | 577 ft | 1 kts | 47° |
| 2026-05-06 23:09 | 43.67879 | -79.60824 | 577 ft | 2 kts | 43° |
| 2026-05-06 23:09 | 43.67864 | -79.60838 | 577 ft | 3 kts | 26° |
| 2026-05-06 23:09 | 43.67850 | -79.60845 | 577 ft | 3 kts | 12° |
| 2026-05-06 23:10 | 43.67838 | -79.60843 | 577 ft | 0 kts | 329° |
| 2026-05-06 23:10 | 43.67832 | -79.60830 | 577 ft | 0 kts | 316° |
| 2026-05-06 23:11 | 43.67831 | -79.60829 | 577 ft | 1 kts | 316° |
| 2026-05-06 23:12 | 43.67827 | -79.60822 | 577 ft | 0 kts | 316° |
| 2026-05-06 23:12 | 43.67827 | -79.60823 | 577 ft | 0 kts | 316° |
| 2026-05-06 23:12 | 43.67846 | -79.60848 | 577 ft | 2 kts | 316° |
| 2026-05-06 23:12 | 43.67854 | -79.60859 | 577 ft | 0 kts | 316° |
| 2026-05-06 23:14 | 43.67860 | -79.60867 | 577 ft | 0 kts | 316° |
| 2026-05-06 23:15 | 43.67861 | -79.60868 | 577 ft | 0 kts | 316° |
| 2026-05-06 23:15 | 43.67855 | -79.60861 | 577 ft | 2 kts | 316° |
| 2026-05-06 23:15 | 43.67853 | -79.60857 | 577 ft | 0 kts | 316° |
| 2026-05-06 23:19 | 43.67878 | -79.60899 | 577 ft | 13 kts | 283° |
| 2026-05-06 23:19 | 43.67846 | -79.60958 | 577 ft | 7 kts | 179° |
| 2026-05-06 23:20 | 43.67791 | -79.60909 | 577 ft | 13 kts | 136° |
| 2026-05-06 23:20 | 43.67700 | -79.60791 | 577 ft | 13 kts | 137° |
| 2026-05-06 23:20 | 43.67670 | -79.60753 | 577 ft | 7 kts | 188° |
| 2026-05-06 23:20 | 43.67656 | -79.60759 | 577 ft | 0 kts | 204° |
| 2026-05-06 23:21 | 43.67631 | -79.60787 | 577 ft | 13 kts | 226° |
| 2026-05-06 23:21 | 43.67561 | -79.60889 | 577 ft | 27 kts | 226° |
| 2026-05-06 23:21 | 43.67479 | -79.61170 | 577 ft | 33 kts | 271° |
| 2026-05-06 23:21 | 43.67534 | -79.61407 | 577 ft | 27 kts | 305° |
| 2026-05-06 23:22 | 43.67656 | -79.61643 | 577 ft | 33 kts | 235° |
| 2026-05-06 23:22 | 43.67601 | -79.61835 | 577 ft | 27 kts | 328° |
| 2026-05-06 23:22 | 43.67851 | -79.62143 | 577 ft | 40 kts | 329° |
| 2026-05-06 23:22 | 43.68037 | -79.62321 | 577 ft | 40 kts | 316° |
| 2026-05-06 23:23 | 43.68243 | -79.62585 | 577 ft | 27 kts | 318° |
| 2026-05-06 23:23 | 43.68336 | -79.62706 | 577 ft | 13 kts | 317° |
| 2026-05-06 23:23 | 43.68375 | -79.62827 | 577 ft | 20 kts | 239° |
| 2026-05-06 23:23 | 43.68272 | -79.62984 | 577 ft | 40 kts | 226° |
| 2026-05-06 23:24 | 43.68243 | -79.63280 | 577 ft | 47 kts | 315° |
| 2026-05-06 23:24 | 43.68505 | -79.63624 | 577 ft | 60 kts | 316° |
| 2026-05-06 23:24 | 43.68671 | -79.63929 | 577 ft | 53 kts | 271° |
| 2026-05-06 23:24 | 43.68559 | -79.64343 | 577 ft | 67 kts | 226° |
| 2026-05-06 23:25 | 43.68381 | -79.64602 | 577 ft | 0 kts | 226° |
| 2026-05-06 23:25 | 43.68357 | -79.64637 | 577 ft | 13 kts | 225° |
| 2026-05-06 23:25 | 43.68314 | -79.64699 | 577 ft | 0 kts | 226° |
| 2026-05-06 23:29 | 43.68309 | -79.64706 | 577 ft | 12 kts | 226° |
| 2026-05-06 23:29 | 43.68080 | -79.65038 | 577 ft | 60 kts | 226° |
| 2026-05-06 23:29 | 43.67818 | -79.65417 | 577 ft | 49 kts | 226° |
| 2026-05-06 23:29 | 43.67675 | -79.65625 | 577 ft | 45 kts | 226° |
| 2026-05-06 23:30 | 43.67341 | -79.66193 | 577 ft | 47 kts | 303° |
| 2026-05-06 23:30 | 43.67493 | -79.66288 | 577 ft | 0 kts | 44° |
| 2026-05-06 23:30 | 43.67575 | -79.66174 | 577 ft | 55 kts | 46° |
| 2026-05-06 23:30 | 43.68147 | -79.65342 | 577 ft | 146 kts | 46° |
| 2026-05-06 23:31 | 43.68955 | -79.64171 | 1001 ft | 180 kts | 46° |
| 2026-05-06 23:31 | 43.69552 | -79.63328 | 1684 ft | 178 kts | 44° |
| 2026-05-06 23:31 | 43.70457 | -79.62302 | 2827 ft | 173 kts | 37° |
| 2026-05-06 23:31 | 43.71170 | -79.61560 | 3347 ft | 178 kts | 37° |
| 2026-05-06 23:32 | 43.72198 | -79.60524 | 3794 ft | 201 kts | 36° |
| 2026-05-06 23:32 | 43.73248 | -79.59466 | 4260 ft | 216 kts | 36° |
| 2026-05-06 23:32 | 43.74302 | -79.58286 | 4745 ft | 233 kts | 45° |
| 2026-05-06 23:32 | 43.74963 | -79.56358 | 4875 ft | 259 kts | 78° |
| 2026-05-06 23:33 | 43.75147 | -79.54516 | 4961 ft | 276 kts | 79° |
| 2026-05-06 23:33 | 43.75455 | -79.51939 | 5333 ft | 279 kts | 79° |
| 2026-05-06 23:33 | 43.75698 | -79.49249 | 6140 ft | 287 kts | 88° |
| 2026-05-06 23:33 | 43.75302 | -79.46528 | 6894 ft | 293 kts | 118° |
| 2026-05-06 23:34 | 43.74123 | -79.44297 | 7742 ft | 290 kts | 143° |
| 2026-05-06 23:34 | 43.72533 | -79.42907 | 8521 ft | 290 kts | 159° |
| 2026-05-06 23:34 | 43.70832 | -79.41574 | 9312 ft | 294 kts | 155° |
| 2026-05-06 23:34 | 43.69190 | -79.40209 | 10072 ft | 298 kts | 155° |
| 2026-05-06 23:35 | 43.67435 | -79.39103 | 10490 ft | 308 kts | 172° |
| 2026-05-06 23:35 | 43.65525 | -79.38891 | 10834 ft | 317 kts | 191° |
| 2026-05-06 23:35 | 43.63370 | -79.39722 | 11146 ft | 330 kts | 209° |
| 2026-05-06 23:35 | 43.61282 | -79.40917 | 11530 ft | 346 kts | 205° |
| 2026-05-06 23:36 | 43.59029 | -79.42099 | 12313 ft | 347 kts | 210° |
| 2026-05-06 23:36 | 43.56997 | -79.43533 | 12863 ft | 310 kts | 214° |
| 2026-05-06 23:36 | 43.55210 | -79.44938 | 13050 ft | 283 kts | 219° |
| 2026-05-06 23:36 | 43.53691 | -79.46485 | 13130 ft | 262 kts | 223° |
| 2026-05-06 23:37 | 43.52302 | -79.47959 | 13437 ft | 244 kts | 224° |
| 2026-05-06 23:37 | 43.51025 | -79.49321 | 13703 ft | 263 kts | 224° |
| 2026-05-06 23:37 | 43.49620 | -79.50806 | 14019 ft | 277 kts | 223° |
| 2026-05-06 23:37 | 43.48045 | -79.52517 | 14535 ft | 288 kts | 224° |
| 2026-05-06 23:38 | 43.46469 | -79.54236 | 15279 ft | 290 kts | 224° |
| 2026-05-06 23:38 | 43.44872 | -79.55970 | 15989 ft | 293 kts | 224° |
| 2026-05-06 23:38 | 43.43276 | -79.57692 | 16664 ft | 296 kts | 224° |
| 2026-05-06 23:38 | 43.41627 | -79.59456 | 17335 ft | 300 kts | 223° |
| 2026-05-06 23:39 | 43.39966 | -79.61220 | 17994 ft | 303 kts | 223° |
| 2026-05-06 23:39 | 43.38271 | -79.63013 | 18644 ft | 306 kts | 223° |
| 2026-05-06 23:39 | 43.36592 | -79.64791 | 19272 ft | 309 kts | 223° |
| 2026-05-06 23:39 | 43.34872 | -79.66611 | 19896 ft | 312 kts | 223° |
| 2026-05-06 23:40 | 43.33183 | -79.68396 | 20487 ft | 315 kts | 223° |
| 2026-05-06 23:40 | 43.31394 | -79.70279 | 21094 ft | 319 kts | 223° |
| 2026-05-06 23:40 | 43.29612 | -79.72156 | 21680 ft | 322 kts | 223° |
| 2026-05-06 23:40 | 43.27847 | -79.74026 | 22237 ft | 325 kts | 223° |
| 2026-05-06 23:41 | 43.25917 | -79.75740 | 22785 ft | 331 kts | 214° |
| 2026-05-06 23:41 | 43.23817 | -79.77063 | 23325 ft | 336 kts | 207° |
| 2026-05-06 23:41 | 43.22355 | -79.77781 | 23668 ft | 340 kts | 205° |
| 2026-05-06 23:41 | 43.19243 | -79.78902 | 24373 ft | 346 kts | 197° |
| 2026-05-06 23:42 | 43.16887 | -79.79605 | 24874 ft | 349 kts | 197° |
| 2026-05-06 23:42 | 43.14516 | -79.80334 | 25366 ft | 352 kts | 197° |
| 2026-05-06 23:42 | 43.12117 | -79.81099 | 25853 ft | 354 kts | 198° |
| 2026-05-06 23:42 | 43.09723 | -79.81875 | 26373 ft | 355 kts | 198° |
| 2026-05-06 23:43 | 43.07324 | -79.82661 | 26991 ft | 353 kts | 198° |
| 2026-05-06 23:43 | 43.04950 | -79.83446 | 27552 ft | 351 kts | 198° |
| 2026-05-06 23:43 | 43.02584 | -79.84232 | 28086 ft | 351 kts | 198° |
| 2026-05-06 23:43 | 43.00212 | -79.85023 | 28611 ft | 350 kts | 198° |
| 2026-05-06 23:44 | 42.97852 | -79.85812 | 29117 ft | 349 kts | 198° |
| 2026-05-06 23:44 | 42.95499 | -79.86600 | 29678 ft | 344 kts | 198° |
| 2026-05-06 23:44 | 42.93170 | -79.87380 | 30184 ft | 344 kts | 198° |
| 2026-05-06 23:44 | 42.90842 | -79.88160 | 30559 ft | 346 kts | 198° |
| 2026-05-06 23:45 | 42.88490 | -79.88949 | 30907 ft | 349 kts | 198° |
| 2026-05-06 23:45 | 42.86128 | -79.89741 | 31258 ft | 351 kts | 198° |
| 2026-05-06 23:45 | 42.83752 | -79.90537 | 31605 ft | 353 kts | 198° |
| 2026-05-06 23:45 | 42.81355 | -79.91251 | 31940 ft | 356 kts | 195° |
| 2026-05-06 23:46 | 42.78889 | -79.91888 | 32273 ft | 358 kts | 195° |
| 2026-05-06 23:46 | 42.76454 | -79.92493 | 32593 ft | 360 kts | 195° |
| 2026-05-06 23:46 | 42.73987 | -79.93109 | 32909 ft | 362 kts | 195° |
| 2026-05-06 23:46 | 42.71445 | -79.93747 | 33225 ft | 364 kts | 195° |
| 2026-05-06 23:47 | 42.68944 | -79.94377 | 33479 ft | 367 kts | 195° |
| 2026-05-06 23:47 | 42.66624 | -79.94962 | 33764 ft | 369 kts | 195° |
| 2026-05-06 23:47 | 42.64176 | -79.95581 | 33998 ft | 374 kts | 195° |
| 2026-05-06 23:47 | 42.61814 | -79.96177 | 33969 ft | 385 kts | 195° |
| 2026-05-06 23:48 | 42.59165 | -79.96848 | 33979 ft | 382 kts | 195° |
| 2026-05-06 23:48 | 42.56602 | -79.97499 | 33976 ft | 370 kts | 195° |
| 2026-05-06 23:48 | 42.54075 | -79.98147 | 33973 ft | 358 kts | 195° |
| 2026-05-06 23:48 | 42.51662 | -79.98762 | 33970 ft | 346 kts | 195° |
| 2026-05-06 23:49 | 42.49312 | -79.99359 | 33965 ft | 334 kts | 195° |
| 2026-05-06 23:49 | 42.44765 | -80.00511 | 33984 ft | 331 kts | 195° |
| 2026-05-06 23:50 | 42.40239 | -80.01653 | 33995 ft | 331 kts | 195° |
| 2026-05-06 23:50 | 42.33439 | -80.03366 | 33997 ft | 331 kts | 195° |
| 2026-05-06 23:51 | 42.29593 | -80.04333 | 34007 ft | 341 kts | 195° |
| 2026-05-06 23:51 | 42.25776 | -80.05275 | 33989 ft | 336 kts | 193° |
| 2026-05-06 23:52 | 42.20366 | -80.05615 | 33993 ft | 332 kts | 185° |
| 2026-05-06 23:52 | 42.16636 | -80.05624 | 33993 ft | 326 kts | 185° |
| 2026-05-06 23:53 | 42.12144 | -80.05642 | 33998 ft | 324 kts | 185° |
| 2026-05-06 23:53 | 42.07577 | -80.05666 | 34000 ft | 331 kts | 185° |
| 2026-05-06 23:54 | 42.02862 | -80.05694 | 34000 ft | 337 kts | 185° |
| 2026-05-06 23:54 | 41.98098 | -80.05725 | 34010 ft | 352 kts | 185° |
| 2026-05-06 23:55 | 41.93053 | -80.05761 | 34014 ft | 370 kts | 185° |
| 2026-05-06 23:55 | 41.90390 | -80.05780 | 34015 ft | 381 kts | 185° |
| 2026-05-06 23:55 | 41.87651 | -80.05800 | 34016 ft | 393 kts | 185° |
| 2026-05-06 23:56 | 41.84896 | -80.05820 | 34015 ft | 404 kts | 184° |
| 2026-05-06 23:56 | 41.82024 | -80.05841 | 34012 ft | 415 kts | 184° |
| 2026-05-06 23:56 | 41.76133 | -80.05885 | 33999 ft | 421 kts | 184° |
| 2026-05-06 23:57 | 41.70372 | -80.05927 | 33997 ft | 416 kts | 184° |
| 2026-05-06 23:57 | 41.64550 | -80.05970 | 33997 ft | 421 kts | 184° |
| 2026-05-06 23:58 | 41.58697 | -80.06012 | 33996 ft | 420 kts | 184° |
| 2026-05-06 23:58 | 41.52806 | -80.06055 | 33997 ft | 419 kts | 184° |
| 2026-05-06 23:59 | 41.46980 | -80.06097 | 33999 ft | 423 kts | 184° |
| 2026-05-06 23:59 | 41.41099 | -80.06140 | 33997 ft | 422 kts | 184° |
| 2026-05-07 00:00 | 41.35209 | -80.06182 | 33997 ft | 422 kts | 184° |
| 2026-05-07 00:00 | 41.29353 | -80.06223 | 33997 ft | 421 kts | 184° |
| 2026-05-07 00:01 | 41.23470 | -80.06265 | 33997 ft | 424 kts | 184° |
| 2026-05-07 00:01 | 41.17571 | -80.06306 | 33997 ft | 424 kts | 184° |
| 2026-05-07 00:02 | 41.11644 | -80.06348 | 33997 ft | 426 kts | 184° |
| 2026-05-07 00:02 | 41.05748 | -80.06394 | 33997 ft | 425 kts | 184° |
| 2026-05-07 00:03 | 40.99806 | -80.06440 | 33997 ft | 425 kts | 184° |
| 2026-05-07 00:03 | 40.93856 | -80.06483 | 33997 ft | 425 kts | 184° |
| 2026-05-07 00:04 | 40.87935 | -80.06526 | 33997 ft | 425 kts | 184° |
| 2026-05-07 00:04 | 40.85019 | -80.06553 | 33993 ft | 413 kts | 187° |
| 2026-05-07 00:04 | 40.82185 | -80.06609 | 33983 ft | 400 kts | 186° |
| 2026-05-07 00:05 | 40.76688 | -80.06711 | 33993 ft | 394 kts | 186° |
| 2026-05-07 00:05 | 40.71154 | -80.06744 | 33998 ft | 402 kts | 185° |
| 2026-05-07 00:06 | 40.65538 | -80.06751 | 33996 ft | 403 kts | 185° |
| 2026-05-07 00:06 | 40.59975 | -80.06770 | 33997 ft | 402 kts | 185° |
| 2026-05-07 00:07 | 40.54359 | -80.06800 | 33997 ft | 402 kts | 185° |
| 2026-05-07 00:07 | 40.48782 | -80.06833 | 33997 ft | 402 kts | 185° |
| 2026-05-07 00:08 | 40.43157 | -80.06868 | 33997 ft | 402 kts | 185° |
| 2026-05-07 00:08 | 40.37557 | -80.06906 | 33996 ft | 401 kts | 185° |
| 2026-05-07 00:09 | 40.32019 | -80.06942 | 33996 ft | 395 kts | 185° |
| 2026-05-07 00:09 | 40.26519 | -80.06978 | 33997 ft | 396 kts | 185° |
| 2026-05-07 00:10 | 40.21001 | -80.07016 | 33997 ft | 396 kts | 185° |
| 2026-05-07 00:10 | 40.15516 | -80.07052 | 33997 ft | 396 kts | 185° |
| 2026-05-07 00:11 | 40.10028 | -80.07089 | 33997 ft | 396 kts | 185° |
| 2026-05-07 00:11 | 40.04484 | -80.07125 | 33996 ft | 396 kts | 185° |
| 2026-05-07 00:12 | 39.98966 | -80.07162 | 33997 ft | 396 kts | 185° |
| 2026-05-07 00:12 | 39.93480 | -80.07198 | 33997 ft | 396 kts | 185° |
| 2026-05-07 00:13 | 39.87935 | -80.07235 | 33997 ft | 396 kts | 185° |
| 2026-05-07 00:13 | 39.82416 | -80.07271 | 33997 ft | 396 kts | 185° |
| 2026-05-07 00:14 | 39.76906 | -80.07307 | 33997 ft | 396 kts | 185° |
| 2026-05-07 00:14 | 39.71411 | -80.07342 | 33996 ft | 390 kts | 185° |
| 2026-05-07 00:15 | 39.66006 | -80.07376 | 33998 ft | 388 kts | 185° |
| 2026-05-07 00:15 | 39.60603 | -80.07407 | 33997 ft | 388 kts | 185° |
| 2026-05-07 00:16 | 39.55210 | -80.07444 | 33997 ft | 388 kts | 185° |
| 2026-05-07 00:16 | 39.49821 | -80.07510 | 33997 ft | 388 kts | 186° |
| 2026-05-07 00:17 | 39.44410 | -80.07600 | 33997 ft | 388 kts | 186° |
| 2026-05-07 00:17 | 39.39038 | -80.07686 | 33997 ft | 388 kts | 186° |
| 2026-05-07 00:18 | 39.33653 | -80.07769 | 33997 ft | 388 kts | 186° |
| 2026-05-07 00:18 | 39.28245 | -80.07852 | 33997 ft | 388 kts | 186° |
| 2026-05-07 00:19 | 39.22839 | -80.07934 | 33997 ft | 388 kts | 186° |
| 2026-05-07 00:19 | 39.17450 | -80.08015 | 33997 ft | 388 kts | 186° |
| 2026-05-07 00:20 | 39.12960 | -80.08082 | 33997 ft | 388 kts | 186° |
| 2026-05-07 00:20 | 39.07572 | -80.08161 | 33997 ft | 388 kts | 186° |
| 2026-05-07 00:21 | 39.02251 | -80.08237 | 33993 ft | 376 kts | 186° |
| 2026-05-07 00:21 | 38.97056 | -80.08313 | 33997 ft | 373 kts | 186° |
| 2026-05-07 00:22 | 38.91871 | -80.08381 | 33995 ft | 374 kts | 185° |
| 2026-05-07 00:22 | 38.86642 | -80.08018 | 33997 ft | 376 kts | 180° |
| 2026-05-07 00:23 | 38.81420 | -80.07409 | 33997 ft | 376 kts | 180° |
| 2026-05-07 00:23 | 38.76207 | -80.06791 | 33996 ft | 376 kts | 180° |
| 2026-05-07 00:24 | 38.71012 | -80.06198 | 33997 ft | 376 kts | 180° |
| 2026-05-07 00:24 | 38.65799 | -80.05618 | 33997 ft | 376 kts | 180° |
| 2026-05-07 00:25 | 38.60578 | -80.05045 | 33997 ft | 376 kts | 180° |
| 2026-05-07 00:25 | 38.55359 | -80.04476 | 33997 ft | 376 kts | 180° |
| 2026-05-07 00:26 | 38.50138 | -80.03910 | 33997 ft | 376 kts | 180° |
| 2026-05-07 00:26 | 38.47546 | -80.03935 | 33997 ft | 370 kts | 195° |
| 2026-05-07 00:26 | 38.45072 | -80.04735 | 33997 ft | 367 kts | 201° |
| 2026-05-07 00:27 | 38.40130 | -80.06466 | 33997 ft | 368 kts | 200° |
| 2026-05-07 00:27 | 38.35201 | -80.08178 | 33997 ft | 367 kts | 200° |
| 2026-05-07 00:28 | 38.30264 | -80.09896 | 33997 ft | 368 kts | 200° |
| 2026-05-07 00:28 | 38.25325 | -80.11615 | 33997 ft | 367 kts | 200° |
| 2026-05-07 00:29 | 38.20397 | -80.13332 | 33997 ft | 367 kts | 200° |
| 2026-05-07 00:30 | 38.10525 | -80.16778 | 33997 ft | 367 kts | 200° |
| 2026-05-07 00:30 | 38.05594 | -80.18502 | 33996 ft | 367 kts | 200° |
| 2026-05-07 00:31 | 38.00692 | -80.20218 | 33997 ft | 367 kts | 200° |
| 2026-05-07 00:31 | 37.95740 | -80.21953 | 33997 ft | 367 kts | 200° |
| 2026-05-07 00:32 | 37.90839 | -80.23672 | 33997 ft | 368 kts | 200° |
| 2026-05-07 00:32 | 37.88282 | -80.24113 | 33962 ft | 374 kts | 183° |
| 2026-05-07 00:32 | 37.85694 | -80.23546 | 33982 ft | 387 kts | 166° |
| 2026-05-07 00:33 | 37.83249 | -80.21999 | 34052 ft | 400 kts | 144° |
| 2026-05-07 00:33 | 37.81059 | -80.19749 | 34025 ft | 411 kts | 141° |
| 2026-05-07 00:33 | 37.76356 | -80.15433 | 34016 ft | 426 kts | 148° |
| 2026-05-07 00:34 | 37.71412 | -80.11040 | 34008 ft | 442 kts | 148° |
| 2026-05-07 00:34 | 37.66321 | -80.06471 | 34002 ft | 457 kts | 147° |
| 2026-05-07 00:35 | 37.63710 | -80.04118 | 33780 ft | 466 kts | 147° |
| 2026-05-07 00:35 | 37.61050 | -80.01718 | 33347 ft | 465 kts | 147° |
| 2026-05-07 00:35 | 37.59292 | -80.00129 | 33085 ft | 459 kts | 147° |
| 2026-05-07 00:36 | 37.53376 | -79.94768 | 31931 ft | 451 kts | 147° |
| 2026-05-07 00:36 | 37.50395 | -79.92052 | 31357 ft | 447 kts | 147° |
| 2026-05-07 00:36 | 37.47869 | -79.89755 | 31156 ft | 437 kts | 147° |
| 2026-05-07 00:36 | 37.45431 | -79.87541 | 31032 ft | 437 kts | 147° |
| 2026-05-07 00:37 | 37.42927 | -79.85271 | 30770 ft | 441 kts | 147° |
| 2026-05-07 00:37 | 37.40452 | -79.83028 | 30386 ft | 443 kts | 147° |
| 2026-05-07 00:37 | 37.37955 | -79.80768 | 29985 ft | 440 kts | 147° |
| 2026-05-07 00:37 | 37.35477 | -79.78528 | 29584 ft | 436 kts | 147° |
| 2026-05-07 00:38 | 37.33022 | -79.76310 | 29131 ft | 434 kts | 147° |
| 2026-05-07 00:38 | 37.30622 | -79.74144 | 28663 ft | 431 kts | 147° |
| 2026-05-07 00:38 | 37.28209 | -79.71968 | 28190 ft | 427 kts | 147° |
| 2026-05-07 00:38 | 37.25760 | -79.69761 | 27705 ft | 424 kts | 147° |
| 2026-05-07 00:39 | 37.23362 | -79.67603 | 27228 ft | 421 kts | 147° |
| 2026-05-07 00:39 | 37.20993 | -79.65472 | 26752 ft | 417 kts | 147° |
| 2026-05-07 00:39 | 37.18648 | -79.63363 | 26277 ft | 415 kts | 147° |
| 2026-05-07 00:39 | 37.16324 | -79.61277 | 25807 ft | 418 kts | 147° |
| 2026-05-07 00:40 | 37.13883 | -79.59087 | 25328 ft | 437 kts | 147° |
| 2026-05-07 00:40 | 37.11390 | -79.56852 | 24854 ft | 445 kts | 147° |
| 2026-05-07 00:40 | 37.08864 | -79.54589 | 24378 ft | 446 kts | 147° |
| 2026-05-07 00:40 | 37.06335 | -79.52325 | 23900 ft | 443 kts | 147° |
| 2026-05-07 00:41 | 37.03835 | -79.50089 | 23424 ft | 439 kts | 147° |
| 2026-05-07 00:41 | 37.01360 | -79.47878 | 22948 ft | 435 kts | 147° |
| 2026-05-07 00:41 | 36.98933 | -79.45711 | 22478 ft | 432 kts | 147° |
| 2026-05-07 00:41 | 36.96471 | -79.43513 | 21998 ft | 430 kts | 147° |
| 2026-05-07 00:42 | 36.94068 | -79.41371 | 21526 ft | 427 kts | 147° |
| 2026-05-07 00:42 | 36.91662 | -79.39227 | 21051 ft | 424 kts | 148° |
| 2026-05-07 00:42 | 36.90035 | -79.37780 | 20728 ft | 422 kts | 148° |
| 2026-05-07 00:42 | 36.87659 | -79.35665 | 20253 ft | 419 kts | 148° |
| 2026-05-07 00:43 | 36.85777 | -79.33991 | 19874 ft | 416 kts | 148° |
| 2026-05-07 00:43 | 36.83394 | -79.31874 | 19381 ft | 410 kts | 148° |
| 2026-05-07 00:43 | 36.81264 | -79.29983 | 18927 ft | 400 kts | 148° |
| 2026-05-07 00:43 | 36.79034 | -79.28005 | 18454 ft | 390 kts | 148° |
| 2026-05-07 00:44 | 36.76973 | -79.26177 | 18004 ft | 382 kts | 148° |
| 2026-05-07 00:44 | 36.74966 | -79.24399 | 17561 ft | 379 kts | 148° |
| 2026-05-07 00:44 | 36.72825 | -79.22503 | 17088 ft | 379 kts | 148° |
| 2026-05-07 00:44 | 36.71069 | -79.20950 | 16703 ft | 379 kts | 148° |
| 2026-05-07 00:45 | 36.68971 | -79.19094 | 16241 ft | 380 kts | 148° |
| 2026-05-07 00:45 | 36.66831 | -79.17203 | 15769 ft | 378 kts | 148° |
| 2026-05-07 00:45 | 36.64723 | -79.15330 | 15302 ft | 378 kts | 148° |
| 2026-05-07 00:45 | 36.62507 | -79.13366 | 14808 ft | 378 kts | 148° |
| 2026-05-07 00:46 | 36.60527 | -79.11616 | 14369 ft | 377 kts | 148° |
| 2026-05-07 00:46 | 36.58479 | -79.09809 | 13911 ft | 375 kts | 148° |
| 2026-05-07 00:46 | 36.57382 | -79.08843 | 13664 ft | 374 kts | 148° |
| 2026-05-07 00:46 | 36.55446 | -79.07139 | 13235 ft | 372 kts | 148° |
| 2026-05-07 00:47 | 36.53337 | -79.05286 | 12760 ft | 370 kts | 148° |
| 2026-05-07 00:47 | 36.51237 | -79.03443 | 12282 ft | 368 kts | 148° |
| 2026-05-07 00:47 | 36.49125 | -79.01590 | 11806 ft | 366 kts | 148° |
| 2026-05-07 00:47 | 36.47101 | -78.99815 | 11552 ft | 358 kts | 148° |
| 2026-05-07 00:48 | 36.45090 | -78.98054 | 11313 ft | 352 kts | 148° |
| 2026-05-07 00:48 | 36.43051 | -78.96269 | 11069 ft | 348 kts | 148° |
| 2026-05-07 00:48 | 36.41092 | -78.94554 | 10997 ft | 345 kts | 148° |
| 2026-05-07 00:48 | 36.39190 | -78.92705 | 11000 ft | 349 kts | 141° |
| 2026-05-07 00:49 | 36.37487 | -78.90642 | 10927 ft | 336 kts | 136° |
| 2026-05-07 00:49 | 36.35943 | -78.88563 | 10820 ft | 319 kts | 136° |
| 2026-05-07 00:49 | 36.34438 | -78.86613 | 10719 ft | 304 kts | 137° |
| 2026-05-07 00:49 | 36.33005 | -78.84779 | 10622 ft | 289 kts | 137° |
| 2026-05-07 00:50 | 36.31454 | -78.83382 | 10491 ft | 268 kts | 165° |
| 2026-05-07 00:50 | 36.29710 | -78.83231 | 10379 ft | 241 kts | 200° |
| 2026-05-07 00:50 | 36.28360 | -78.84279 | 10114 ft | 226 kts | 235° |
| 2026-05-07 00:50 | 36.27581 | -78.85964 | 9837 ft | 222 kts | 247° |
| 2026-05-07 00:51 | 36.26916 | -78.87694 | 9547 ft | 222 kts | 247° |
| 2026-05-07 00:51 | 36.26253 | -78.89426 | 9276 ft | 221 kts | 247° |
| 2026-05-07 00:51 | 36.25599 | -78.91133 | 9043 ft | 219 kts | 247° |
| 2026-05-07 00:51 | 36.24950 | -78.92830 | 8997 ft | 216 kts | 247° |
| 2026-05-07 00:52 | 36.24309 | -78.94509 | 8982 ft | 217 kts | 247° |
| 2026-05-07 00:52 | 36.23653 | -78.96226 | 8781 ft | 219 kts | 247° |
| 2026-05-07 00:52 | 36.22843 | -78.97800 | 8522 ft | 221 kts | 227° |
| 2026-05-07 00:52 | 36.21492 | -78.98740 | 8127 ft | 230 kts | 199° |
| 2026-05-07 00:53 | 36.19862 | -78.98736 | 7748 ft | 239 kts | 170° |
| 2026-05-07 00:53 | 36.18389 | -78.97753 | 7385 ft | 247 kts | 141° |
| 2026-05-07 00:53 | 36.17429 | -78.96020 | 7083 ft | 250 kts | 112° |
| 2026-05-07 00:53 | 36.17155 | -78.93897 | 7044 ft | 248 kts | 79° |
| 2026-05-07 00:54 | 36.17310 | -78.91769 | 7006 ft | 250 kts | 86° |
| 2026-05-07 00:54 | 36.17454 | -78.89556 | 7005 ft | 253 kts | 86° |
| 2026-05-07 00:54 | 36.17604 | -78.87412 | 7003 ft | 253 kts | 86° |
| 2026-05-07 00:54 | 36.17756 | -78.85219 | 7003 ft | 253 kts | 86° |
| 2026-05-07 00:55 | 36.17907 | -78.83035 | 7003 ft | 253 kts | 86° |
| 2026-05-07 00:55 | 36.18053 | -78.80898 | 7003 ft | 253 kts | 86° |
| 2026-05-07 00:55 | 36.18151 | -78.79446 | 7003 ft | 253 kts | 86° |
| 2026-05-07 00:55 | 36.18300 | -78.77250 | 6896 ft | 255 kts | 86° |
| 2026-05-07 00:56 | 36.18405 | -78.75695 | 6748 ft | 257 kts | 86° |
| 2026-05-07 00:56 | 36.18503 | -78.74243 | 6606 ft | 258 kts | 86° |
| 2026-05-07 00:56 | 36.18651 | -78.72032 | 6394 ft | 256 kts | 86° |
| 2026-05-07 00:56 | 36.18797 | -78.69853 | 6133 ft | 252 kts | 85° |
| 2026-05-07 00:57 | 36.18928 | -78.67667 | 5784 ft | 251 kts | 90° |
| 2026-05-07 00:57 | 36.18374 | -78.65703 | 5513 ft | 245 kts | 139° |
| 2026-05-07 00:57 | 36.16979 | -78.64512 | 5031 ft | 248 kts | 151° |
| 2026-05-07 00:57 | 36.15453 | -78.63486 | 4612 ft | 248 kts | 151° |
| 2026-05-07 00:58 | 36.13951 | -78.62472 | 4227 ft | 246 kts | 151° |
| 2026-05-07 00:58 | 36.12445 | -78.61457 | 3744 ft | 246 kts | 151° |
| 2026-05-07 00:58 | 36.10878 | -78.60603 | 3225 ft | 247 kts | 167° |
| 2026-05-07 00:58 | 36.09219 | -78.60622 | 3062 ft | 231 kts | 187° |
| 2026-05-07 00:59 | 36.06127 | -78.61303 | 2993 ft | 222 kts | 190° |
| 2026-05-07 00:59 | 36.04673 | -78.61877 | 2939 ft | 224 kts | 203° |
| 2026-05-07 00:59 | 36.03370 | -78.62954 | 2970 ft | 224 kts | 211° |
| 2026-05-07 01:00 | 36.01896 | -78.63615 | 2995 ft | 224 kts | 206° |
| 2026-05-07 01:00 | 36.00458 | -78.64357 | 3071 ft | 225 kts | 221° |
| 2026-05-07 01:00 | 35.99331 | -78.65675 | 3042 ft | 226 kts | 225° |
| 2026-05-07 01:00 | 35.98187 | -78.67018 | 2891 ft | 228 kts | 223° |
| 2026-05-07 01:01 | 35.97092 | -78.68299 | 2618 ft | 229 kts | 223° |
| 2026-05-07 01:01 | 35.95927 | -78.69720 | 2306 ft | 226 kts | 224° |
| 2026-05-07 01:01 | 35.94811 | -78.71097 | 2007 ft | 222 kts | 224° |
| 2026-05-07 01:01 | 35.93761 | -78.72393 | 1755 ft | 204 kts | 224° |
| 2026-05-07 01:02 | 35.92831 | -78.73542 | 1495 ft | 181 kts | 224° |
| 2026-05-07 01:02 | 35.91985 | -78.74586 | 1207 ft | 164 kts | 224° |
| 2026-05-07 01:02 | 35.91220 | -78.75532 | 1027 ft | 150 kts | 224° |
| 2026-05-07 01:02 | 35.90485 | -78.76439 | 825 ft | 144 kts | 224° |
| 2026-05-07 01:03 | 35.89774 | -78.77315 | 641 ft | 145 kts | 224° |
| 2026-05-07 01:03 | 35.89057 | -78.78186 | 455 ft | 141 kts | 228° |
| 2026-05-07 01:03 | 35.88504 | -78.78879 | 443 ft | 71 kts | 227° |
| 2026-05-07 01:03 | 35.88311 | -78.79086 | 443 ft | 20 kts | 159° |
| 2026-05-07 01:04 | 35.88252 | -78.79031 | 443 ft | 0 kts | 135° |
| 2026-05-07 01:04 | 35.88251 | -78.79030 | 443 ft | 0 kts | 136° |
| 2026-05-07 01:04 | 35.88241 | -78.79019 | 443 ft | 7 kts | 141° |
| 2026-05-07 01:05 | 35.88209 | -78.79052 | 443 ft | 7 kts | 233° |
| 2026-05-07 01:05 | 35.88178 | -78.79096 | 443 ft | 7 kts | 226° |
| 2026-05-07 01:05 | 35.88138 | -78.79103 | 443 ft | 7 kts | 144° |
| 2026-05-07 01:05 | 35.88098 | -78.79089 | 443 ft | 7 kts | 207° |
| 2026-05-07 01:06 | 35.87939 | -78.79289 | 443 ft | 27 kts | 225° |
| 2026-05-07 01:06 | 35.87844 | -78.79410 | 443 ft | 7 kts | 225° |
| 2026-05-07 01:06 | 35.87800 | -78.79443 | 443 ft | 7 kts | 178° |
| 2026-05-07 01:06 | 35.87758 | -78.79419 | 443 ft | 7 kts | 130° |
| 2026-05-07 01:07 | 35.87750 | -78.79410 | 443 ft | 1 kts | 136° |
| 2026-05-07 01:07 | 35.87754 | -78.79415 | 443 ft | 0 kts | 136° |
| 2026-05-07 01:07 | 35.87755 | -78.79416 | 443 ft | 1 kts | 136° |
| 2026-05-07 01:08 | 35.87758 | -78.79419 | 443 ft | 0 kts | 136° |